sensor_id;sensor_type;location;lat;lon;timestamp;P1;durP1;ratioP1;P2;durP2;ratioP2
68010;SDS011;54794;48.348;7.878;2023-04-03T00:01:11;1.33;;;0.77;;
68010;SDS011;54794;48.348;7.878;2023-04-03T00:03:38;1.08;;;0.60;;
68010;SDS011;54794;48.348;7.878;2023-04-03T00:06:06;1.30;;;0.70;;
68010;SDS011;54794;48.348;7.878;2023-04-03T00:08:36;0.80;;;0.68;;
68010;SDS011;54794;48.348;7.878;2023-04-03T00:11:05;0.90;;;0.60;;
68010;SDS011;54794;48.348;7.878;2023-04-03T00:13:33;1.35;;;0.80;;
68010;SDS011;54794;48.348;7.878;2023-04-03T00:16:00;2.58;;;0.73;;
68010;SDS011;54794;48.348;7.878;2023-04-03T00:18:29;1.45;;;0.80;;
68010;SDS011;54794;48.348;7.878;2023-04-03T00:20:57;1.10;;;0.77;;
68010;SDS011;54794;48.348;7.878;2023-04-03T00:23:24;0.95;;;0.70;;
68010;SDS011;54794;48.348;7.878;2023-04-03T00:25:52;2.25;;;0.60;;
68010;SDS011;54794;48.348;7.878;2023-04-03T00:28:19;0.70;;;0.50;;
68010;SDS011;54794;48.348;7.878;2023-04-03T00:30:50;1.67;;;0.55;;
68010;SDS011;54794;48.348;7.878;2023-04-03T00:33:18;1.65;;;0.60;;
68010;SDS011;54794;48.348;7.878;2023-04-03T00:35:48;1.52;;;0.50;;
68010;SDS011;54794;48.348;7.878;2023-04-03T00:38:15;1.00;;;0.63;;
68010;SDS011;54794;48.348;7.878;2023-04-03T00:40:44;0.95;;;0.60;;
68010;SDS011;54794;48.348;7.878;2023-04-03T00:43:15;0.80;;;0.68;;
68010;SDS011;54794;48.348;7.878;2023-04-03T00:45:49;0.80;;;0.43;;
68010;SDS011;54794;48.348;7.878;2023-04-03T00:48:31;2.70;;;0.57;;
68010;SDS011;54794;48.348;7.878;2023-04-03T00:51:01;1.50;;;0.52;;
68010;SDS011;54794;48.348;7.878;2023-04-03T00:53:33;0.80;;;0.50;;
68010;SDS011;54794;48.348;7.878;2023-04-03T00:56:25;1.15;;;0.68;;
68010;SDS011;54794;48.348;7.878;2023-04-03T00:59:30;1.10;;;0.65;;
68010;SDS011;54794;48.348;7.878;2023-04-03T01:02:00;1.55;;;0.60;;
68010;SDS011;54794;48.348;7.878;2023-04-03T01:04:32;1.15;;;0.60;;
68010;SDS011;54794;48.348;7.878;2023-04-03T01:07:06;2.08;;;0.70;;
68010;SDS011;54794;48.348;7.878;2023-04-03T01:09:41;2.58;;;0.70;;
68010;SDS011;54794;48.348;7.878;2023-04-03T01:14:44;0.60;;;0.50;;
68010;SDS011;54794;48.348;7.878;2023-04-03T01:19:52;0.55;;;0.47;;
68010;SDS011;54794;48.348;7.878;2023-04-03T01:22:46;1.00;;;0.50;;
68010;SDS011;54794;48.348;7.878;2023-04-03T01:25:32;0.73;;;0.52;;
68010;SDS011;54794;48.348;7.878;2023-04-03T01:28:00;0.60;;;0.50;;
68010;SDS011;54794;48.348;7.878;2023-04-03T01:30:30;1.63;;;0.70;;
68010;SDS011;54794;48.348;7.878;2023-04-03T01:33:03;0.98;;;0.70;;
68010;SDS011;54794;48.348;7.878;2023-04-03T01:35:30;1.42;;;0.60;;
68010;SDS011;54794;48.348;7.878;2023-04-03T01:37:56;1.92;;;0.80;;
68010;SDS011;54794;48.348;7.878;2023-04-03T01:40:23;1.15;;;0.57;;
68010;SDS011;54794;48.348;7.878;2023-04-03T01:42:51;1.10;;;0.50;;
68010;SDS011;54794;48.348;7.878;2023-04-03T01:45:18;1.37;;;0.70;;
68010;SDS011;54794;48.348;7.878;2023-04-03T01:47:45;1.50;;;0.70;;
68010;SDS011;54794;48.348;7.878;2023-04-03T01:50:12;1.00;;;0.75;;
68010;SDS011;54794;48.348;7.878;2023-04-03T01:52:39;1.42;;;0.73;;
68010;SDS011;54794;48.348;7.878;2023-04-03T01:55:06;1.10;;;0.68;;
68010;SDS011;54794;48.348;7.878;2023-04-03T01:57:33;1.33;;;0.77;;
68010;SDS011;54794;48.348;7.878;2023-04-03T02:00:00;0.88;;;0.50;;
68010;SDS011;54794;48.348;7.878;2023-04-03T02:02:27;1.55;;;0.80;;
68010;SDS011;54794;48.348;7.878;2023-04-03T02:04:54;1.10;;;0.50;;
68010;SDS011;54794;48.348;7.878;2023-04-03T02:07:21;1.35;;;0.73;;
68010;SDS011;54794;48.348;7.878;2023-04-03T02:09:47;0.95;;;0.60;;
68010;SDS011;54794;48.348;7.878;2023-04-03T02:12:14;0.70;;;0.53;;
68010;SDS011;54794;48.348;7.878;2023-04-03T02:14:41;1.63;;;0.65;;
68010;SDS011;54794;48.348;7.878;2023-04-03T02:17:08;1.45;;;0.65;;
68010;SDS011;54794;48.348;7.878;2023-04-03T02:19:35;0.80;;;0.60;;
68010;SDS011;54794;48.348;7.878;2023-04-03T02:22:03;0.70;;;0.50;;
68010;SDS011;54794;48.348;7.878;2023-04-03T02:24:31;0.60;;;0.50;;
68010;SDS011;54794;48.348;7.878;2023-04-03T02:26:58;0.98;;;0.45;;
68010;SDS011;54794;48.348;7.878;2023-04-03T02:29:25;1.33;;;0.65;;
68010;SDS011;54794;48.348;7.878;2023-04-03T02:31:52;0.67;;;0.47;;
68010;SDS011;54794;48.348;7.878;2023-04-03T02:34:19;1.30;;;0.68;;
68010;SDS011;54794;48.348;7.878;2023-04-03T02:36:47;1.25;;;0.60;;
68010;SDS011;54794;48.348;7.878;2023-04-03T02:39:14;0.85;;;0.70;;
68010;SDS011;54794;48.348;7.878;2023-04-03T02:41:40;1.00;;;0.60;;
68010;SDS011;54794;48.348;7.878;2023-04-03T02:44:09;0.75;;;0.55;;
68010;SDS011;54794;48.348;7.878;2023-04-03T02:46:37;1.25;;;0.60;;
68010;SDS011;54794;48.348;7.878;2023-04-03T02:49:04;0.43;;;0.40;;
68010;SDS011;54794;48.348;7.878;2023-04-03T02:51:31;0.85;;;0.60;;
68010;SDS011;54794;48.348;7.878;2023-04-03T02:53:58;2.08;;;0.70;;
68010;SDS011;54794;48.348;7.878;2023-04-03T02:56:25;1.33;;;0.60;;
68010;SDS011;54794;48.348;7.878;2023-04-03T02:58:52;0.88;;;0.55;;
68010;SDS011;54794;48.348;7.878;2023-04-03T03:01:20;0.93;;;0.70;;
68010;SDS011;54794;48.348;7.878;2023-04-03T03:03:47;1.35;;;0.80;;
68010;SDS011;54794;48.348;7.878;2023-04-03T03:06:14;1.23;;;0.70;;
68010;SDS011;54794;48.348;7.878;2023-04-03T03:08:43;1.23;;;0.65;;
68010;SDS011;54794;48.348;7.878;2023-04-03T03:13:38;0.90;;;0.50;;
68010;SDS011;54794;48.348;7.878;2023-04-03T03:18:33;0.90;;;0.55;;
68010;SDS011;54794;48.348;7.878;2023-04-03T03:23:29;0.98;;;0.45;;
68010;SDS011;54794;48.348;7.878;2023-04-03T03:25:59;1.15;;;0.60;;
68010;SDS011;54794;48.348;7.878;2023-04-03T03:28:32;3.38;;;0.63;;
68010;SDS011;54794;48.348;7.878;2023-04-03T03:31:00;1.77;;;0.70;;
68010;SDS011;54794;48.348;7.878;2023-04-03T03:33:28;0.90;;;0.50;;
68010;SDS011;54794;48.348;7.878;2023-04-03T03:38:23;1.95;;;0.60;;
68010;SDS011;54794;48.348;7.878;2023-04-03T03:40:50;0.55;;;0.47;;
68010;SDS011;54794;48.348;7.878;2023-04-03T03:43:18;1.23;;;0.55;;
68010;SDS011;54794;48.348;7.878;2023-04-03T03:45:49;1.23;;;0.63;;
68010;SDS011;54794;48.348;7.878;2023-04-03T03:48:18;0.60;;;0.40;;
68010;SDS011;54794;48.348;7.878;2023-04-03T03:50:47;0.63;;;0.55;;
68010;SDS011;54794;48.348;7.878;2023-04-03T03:53:15;1.23;;;0.50;;
68010;SDS011;54794;48.348;7.878;2023-04-03T03:55:42;0.87;;;0.60;;
68010;SDS011;54794;48.348;7.878;2023-04-03T03:58:09;1.10;;;0.60;;
68010;SDS011;54794;48.348;7.878;2023-04-03T04:00:36;0.93;;;0.60;;
68010;SDS011;54794;48.348;7.878;2023-04-03T04:03:03;1.00;;;0.80;;
68010;SDS011;54794;48.348;7.878;2023-04-03T04:05:30;2.60;;;0.60;;
68010;SDS011;54794;48.348;7.878;2023-04-03T04:07:57;1.50;;;0.70;;
68010;SDS011;54794;48.348;7.878;2023-04-03T04:10:24;1.45;;;0.60;;
68010;SDS011;54794;48.348;7.878;2023-04-03T04:12:51;0.60;;;0.47;;
68010;SDS011;54794;48.348;7.878;2023-04-03T04:15:18;0.77;;;0.55;;
68010;SDS011;54794;48.348;7.878;2023-04-03T04:17:47;0.95;;;0.60;;
68010;SDS011;54794;48.348;7.878;2023-04-03T04:20:15;3.25;;;0.77;;
68010;SDS011;54794;48.348;7.878;2023-04-03T04:22:41;1.02;;;0.60;;
68010;SDS011;54794;48.348;7.878;2023-04-03T04:25:08;0.70;;;0.60;;
68010;SDS011;54794;48.348;7.878;2023-04-03T04:27:36;0.82;;;0.50;;
68010;SDS011;54794;48.348;7.878;2023-04-03T04:30:03;1.67;;;0.60;;
68010;SDS011;54794;48.348;7.878;2023-04-03T04:32:31;1.00;;;0.57;;
68010;SDS011;54794;48.348;7.878;2023-04-03T04:34:58;1.63;;;0.90;;
68010;SDS011;54794;48.348;7.878;2023-04-03T04:37:25;1.10;;;0.65;;
68010;SDS011;54794;48.348;7.878;2023-04-03T04:39:52;1.05;;;0.73;;
68010;SDS011;54794;48.348;7.878;2023-04-03T04:42:19;0.93;;;0.63;;
68010;SDS011;54794;48.348;7.878;2023-04-03T04:44:46;0.70;;;0.47;;
68010;SDS011;54794;48.348;7.878;2023-04-03T04:47:13;1.35;;;0.82;;
68010;SDS011;54794;48.348;7.878;2023-04-03T04:49:40;0.90;;;0.55;;
68010;SDS011;54794;48.348;7.878;2023-04-03T04:52:07;0.85;;;0.65;;
68010;SDS011;54794;48.348;7.878;2023-04-03T04:57:57;1.20;;;0.73;;
68010;SDS011;54794;48.348;7.878;2023-04-03T05:00:24;2.10;;;1.13;;
68010;SDS011;54794;48.348;7.878;2023-04-03T05:02:51;0.90;;;0.73;;
68010;SDS011;54794;48.348;7.878;2023-04-03T05:05:18;1.33;;;0.88;;
68010;SDS011;54794;48.348;7.878;2023-04-03T05:07:46;1.48;;;0.80;;
68010;SDS011;54794;48.348;7.878;2023-04-03T05:10:21;1.63;;;0.93;;
68010;SDS011;54794;48.348;7.878;2023-04-03T05:13:02;1.30;;;0.90;;
68010;SDS011;54794;48.348;7.878;2023-04-03T05:15:29;2.08;;;1.30;;
68010;SDS011;54794;48.348;7.878;2023-04-03T05:18:02;2.70;;;1.80;;
68010;SDS011;54794;48.348;7.878;2023-04-03T05:20:52;3.60;;;1.80;;
68010;SDS011;54794;48.348;7.878;2023-04-03T05:23:20;2.40;;;1.55;;
68010;SDS011;54794;48.348;7.878;2023-04-03T05:25:46;2.25;;;1.90;;
68010;SDS011;54794;48.348;7.878;2023-04-03T05:28:17;2.33;;;1.92;;
68010;SDS011;54794;48.348;7.878;2023-04-03T05:30:56;2.47;;;1.85;;
68010;SDS011;54794;48.348;7.878;2023-04-03T05:33:50;2.15;;;1.42;;
68010;SDS011;54794;48.348;7.878;2023-04-03T05:36:31;2.13;;;1.40;;
68010;SDS011;54794;48.348;7.878;2023-04-03T05:38:58;2.22;;;1.42;;
68010;SDS011;54794;48.348;7.878;2023-04-03T05:41:28;3.33;;;1.80;;
68010;SDS011;54794;48.348;7.878;2023-04-03T05:43:58;2.33;;;1.15;;
68010;SDS011;54794;48.348;7.878;2023-04-03T05:46:24;1.70;;;1.10;;
68010;SDS011;54794;48.348;7.878;2023-04-03T05:48:53;1.10;;;0.80;;
68010;SDS011;54794;48.348;7.878;2023-04-03T05:51:24;1.70;;;1.00;;
68010;SDS011;54794;48.348;7.878;2023-04-03T05:53:59;1.38;;;1.08;;
68010;SDS011;54794;48.348;7.878;2023-04-03T05:56:35;1.33;;;0.90;;
68010;SDS011;54794;48.348;7.878;2023-04-03T05:59:02;1.20;;;0.80;;
68010;SDS011;54794;48.348;7.878;2023-04-03T06:01:29;1.58;;;0.93;;
68010;SDS011;54794;48.348;7.878;2023-04-03T06:06:25;0.90;;;0.70;;
68010;SDS011;54794;48.348;7.878;2023-04-03T06:08:52;0.88;;;0.70;;
68010;SDS011;54794;48.348;7.878;2023-04-03T06:11:19;1.10;;;0.80;;
68010;SDS011;54794;48.348;7.878;2023-04-03T06:14:07;1.27;;;0.70;;
68010;SDS011;54794;48.348;7.878;2023-04-03T06:16:38;0.90;;;0.70;;
68010;SDS011;54794;48.348;7.878;2023-04-03T06:19:06;1.10;;;0.77;;
68010;SDS011;54794;48.348;7.878;2023-04-03T06:21:34;1.40;;;1.00;;
68010;SDS011;54794;48.348;7.878;2023-04-03T06:24:05;1.63;;;0.70;;
68010;SDS011;54794;48.348;7.878;2023-04-03T06:26:33;0.98;;;0.57;;
68010;SDS011;54794;48.348;7.878;2023-04-03T06:29:10;0.95;;;0.68;;
68010;SDS011;54794;48.348;7.878;2023-04-03T06:32:06;1.55;;;0.80;;
68010;SDS011;54794;48.348;7.878;2023-04-03T06:34:33;1.05;;;0.80;;
68010;SDS011;54794;48.348;7.878;2023-04-03T06:37:00;1.95;;;0.90;;
68010;SDS011;54794;48.348;7.878;2023-04-03T06:39:27;1.40;;;0.98;;
68010;SDS011;54794;48.348;7.878;2023-04-03T06:41:54;2.30;;;1.00;;
68010;SDS011;54794;48.348;7.878;2023-04-03T06:44:21;1.17;;;0.80;;
68010;SDS011;54794;48.348;7.878;2023-04-03T06:46:48;1.08;;;0.70;;
68010;SDS011;54794;48.348;7.878;2023-04-03T06:49:16;1.33;;;1.00;;
68010;SDS011;54794;48.348;7.878;2023-04-03T06:51:43;0.98;;;0.88;;
68010;SDS011;54794;48.348;7.878;2023-04-03T06:54:10;1.08;;;0.82;;
68010;SDS011;54794;48.348;7.878;2023-04-03T06:56:36;2.30;;;1.08;;
68010;SDS011;54794;48.348;7.878;2023-04-03T06:59:03;1.40;;;0.80;;
68010;SDS011;54794;48.348;7.878;2023-04-03T07:01:30;2.25;;;0.90;;
68010;SDS011;54794;48.348;7.878;2023-04-03T07:04:22;1.55;;;0.90;;
68010;SDS011;54794;48.348;7.878;2023-04-03T07:07:21;0.80;;;0.80;;
68010;SDS011;54794;48.348;7.878;2023-04-03T07:09:51;1.92;;;1.10;;
68010;SDS011;54794;48.348;7.878;2023-04-03T07:19:48;1.60;;;1.00;;
68010;SDS011;54794;48.348;7.878;2023-04-03T07:22:15;1.40;;;1.10;;
68010;SDS011;54794;48.348;7.878;2023-04-03T07:24:45;1.73;;;0.95;;
68010;SDS011;54794;48.348;7.878;2023-04-03T07:27:21;1.30;;;0.70;;
68010;SDS011;54794;48.348;7.878;2023-04-03T07:30:01;1.08;;;0.77;;
68010;SDS011;54794;48.348;7.878;2023-04-03T07:32:38;1.43;;;0.90;;
68010;SDS011;54794;48.348;7.878;2023-04-03T07:35:05;1.40;;;0.60;;
68010;SDS011;54794;48.348;7.878;2023-04-03T07:37:40;0.90;;;0.70;;
68010;SDS011;54794;48.348;7.878;2023-04-03T07:40:23;4.03;;;1.00;;
68010;SDS011;54794;48.348;7.878;2023-04-03T07:43:10;1.63;;;1.02;;
68010;SDS011;54794;48.348;7.878;2023-04-03T07:45:37;1.65;;;1.08;;
68010;SDS011;54794;48.348;7.878;2023-04-03T07:50:44;2.08;;;1.25;;
68010;SDS011;54794;48.348;7.878;2023-04-03T07:53:31;1.15;;;0.80;;
68010;SDS011;54794;48.348;7.878;2023-04-03T07:56:30;2.80;;;1.80;;
68010;SDS011;54794;48.348;7.878;2023-04-03T07:59:07;1.75;;;1.20;;
68010;SDS011;54794;48.348;7.878;2023-04-03T08:04:02;3.03;;;1.75;;
68010;SDS011;54794;48.348;7.878;2023-04-03T08:06:30;1.33;;;0.80;;
68010;SDS011;54794;48.348;7.878;2023-04-03T08:09:12;1.45;;;1.00;;
68010;SDS011;54794;48.348;7.878;2023-04-03T08:11:42;2.63;;;1.60;;
68010;SDS011;54794;48.348;7.878;2023-04-03T08:19:41;1.40;;;0.70;;
68010;SDS011;54794;48.348;7.878;2023-04-03T08:29:39;0.60;;;0.50;;
68010;SDS011;54794;48.348;7.878;2023-04-03T08:32:08;1.25;;;0.98;;
68010;SDS011;54794;48.348;7.878;2023-04-03T08:35:06;1.63;;;0.82;;
68010;SDS011;54794;48.348;7.878;2023-04-03T08:38:33;0.85;;;0.60;;
68010;SDS011;54794;48.348;7.878;2023-04-03T08:41:40;1.83;;;1.00;;
68010;SDS011;54794;48.348;7.878;2023-04-03T08:47:37;1.30;;;0.90;;
68010;SDS011;54794;48.348;7.878;2023-04-03T08:53:21;3.58;;;1.08;;
68010;SDS011;54794;48.348;7.878;2023-04-03T08:56:12;1.30;;;0.80;;
68010;SDS011;54794;48.348;7.878;2023-04-03T08:58:52;0.95;;;0.75;;
68010;SDS011;54794;48.348;7.878;2023-04-03T09:01:27;1.08;;;0.80;;
68010;SDS011;54794;48.348;7.878;2023-04-03T09:04:02;1.05;;;0.60;;
68010;SDS011;54794;48.348;7.878;2023-04-03T09:06:47;0.75;;;0.50;;
68010;SDS011;54794;48.348;7.878;2023-04-03T09:12:27;1.08;;;0.47;;
68010;SDS011;54794;48.348;7.878;2023-04-03T09:15:10;1.25;;;0.68;;
68010;SDS011;54794;48.348;7.878;2023-04-03T09:23:58;0.60;;;0.50;;
68010;SDS011;54794;48.348;7.878;2023-04-03T09:30:02;0.85;;;0.47;;
68010;SDS011;54794;48.348;7.878;2023-04-03T09:32:37;1.10;;;0.65;;
68010;SDS011;54794;48.348;7.878;2023-04-03T09:41:04;0.90;;;0.60;;
68010;SDS011;54794;48.348;7.878;2023-04-03T09:44:20;0.50;;;0.50;;
68010;SDS011;54794;48.348;7.878;2023-04-03T09:50:36;0.90;;;0.45;;
68010;SDS011;54794;48.348;7.878;2023-04-03T09:53:43;0.95;;;0.47;;
68010;SDS011;54794;48.348;7.878;2023-04-03T09:56:25;1.27;;;0.60;;
68010;SDS011;54794;48.348;7.878;2023-04-03T09:59:12;0.77;;;0.60;;
68010;SDS011;54794;48.348;7.878;2023-04-03T10:02:20;0.75;;;0.60;;
68010;SDS011;54794;48.348;7.878;2023-04-03T10:08:59;0.90;;;0.52;;
68010;SDS011;54794;48.348;7.878;2023-04-03T10:11:31;0.73;;;0.55;;
68010;SDS011;54794;48.348;7.878;2023-04-03T10:13:59;0.70;;;0.50;;
68010;SDS011;54794;48.348;7.878;2023-04-03T10:16:35;1.60;;;0.90;;
68010;SDS011;54794;48.348;7.878;2023-04-03T10:25:20;1.13;;;0.70;;
68010;SDS011;54794;48.348;7.878;2023-04-03T10:40:34;0.30;;;0.30;;
68010;SDS011;54794;48.348;7.878;2023-04-03T10:50:29;0.80;;;0.60;;
68010;SDS011;54794;48.348;7.878;2023-04-03T10:56:30;0.68;;;0.45;;
68010;SDS011;54794;48.348;7.878;2023-04-03T11:02:23;1.00;;;0.52;;
68010;SDS011;54794;48.348;7.878;2023-04-03T11:05:31;2.75;;;0.50;;
68010;SDS011;54794;48.348;7.878;2023-04-03T11:08:53;0.75;;;0.50;;
68010;SDS011;54794;48.348;7.878;2023-04-03T11:11:43;0.50;;;0.32;;
68010;SDS011;54794;48.348;7.878;2023-04-03T11:17:05;0.70;;;0.50;;
68010;SDS011;54794;48.348;7.878;2023-04-03T11:19:52;0.75;;;0.50;;
68010;SDS011;54794;48.348;7.878;2023-04-03T11:22:28;0.63;;;0.40;;
68010;SDS011;54794;48.348;7.878;2023-04-03T11:25:18;0.50;;;0.32;;
68010;SDS011;54794;48.348;7.878;2023-04-03T11:28:03;0.63;;;0.40;;
68010;SDS011;54794;48.348;7.878;2023-04-03T11:46:16;1.10;;;0.52;;
68010;SDS011;54794;48.348;7.878;2023-04-03T11:48:54;0.70;;;0.55;;
68010;SDS011;54794;48.348;7.878;2023-04-03T11:51:45;1.77;;;0.77;;
68010;SDS011;54794;48.348;7.878;2023-04-03T12:12:56;0.60;;;0.50;;
68010;SDS011;54794;48.348;7.878;2023-04-03T12:15:41;0.77;;;0.60;;
68010;SDS011;54794;48.348;7.878;2023-04-03T12:35:14;0.82;;;0.50;;
68010;SDS011;54794;48.348;7.878;2023-04-03T12:47:19;0.65;;;0.50;;
68010;SDS011;54794;48.348;7.878;2023-04-03T12:49:59;0.50;;;0.47;;
68010;SDS011;54794;48.348;7.878;2023-04-03T12:52:47;0.80;;;0.50;;
68010;SDS011;54794;48.348;7.878;2023-04-03T13:06:17;1.02;;;0.47;;
68010;SDS011;54794;48.348;7.878;2023-04-03T13:08:55;1.10;;;0.43;;
68010;SDS011;54794;48.348;7.878;2023-04-03T13:11:46;0.50;;;0.30;;
68010;SDS011;54794;48.348;7.878;2023-04-03T13:14:27;0.93;;;0.60;;
68010;SDS011;54794;48.348;7.878;2023-04-03T13:17:06;1.58;;;1.00;;
68010;SDS011;54794;48.348;7.878;2023-04-03T13:19:43;2.33;;;0.90;;
68010;SDS011;54794;48.348;7.878;2023-04-03T13:22:39;1.00;;;0.55;;
68010;SDS011;54794;48.348;7.878;2023-04-03T13:25:33;1.80;;;0.80;;
68010;SDS011;54794;48.348;7.878;2023-04-03T13:28:15;1.77;;;0.70;;
68010;SDS011;54794;48.348;7.878;2023-04-03T13:36:39;0.93;;;0.50;;
68010;SDS011;54794;48.348;7.878;2023-04-03T13:39:36;0.68;;;0.43;;
68010;SDS011;54794;48.348;7.878;2023-04-03T13:42:16;0.60;;;0.40;;
68010;SDS011;54794;48.348;7.878;2023-04-03T13:45:06;1.65;;;0.60;;
68010;SDS011;54794;48.348;7.878;2023-04-03T13:48:06;0.90;;;0.50;;
68010;SDS011;54794;48.348;7.878;2023-04-03T13:53:32;0.90;;;0.52;;
68010;SDS011;54794;48.348;7.878;2023-04-03T13:56:09;1.10;;;0.50;;
68010;SDS011;54794;48.348;7.878;2023-04-03T13:58:55;0.60;;;0.40;;
68010;SDS011;54794;48.348;7.878;2023-04-03T14:04:20;0.90;;;0.60;;
68010;SDS011;54794;48.348;7.878;2023-04-03T14:06:52;0.82;;;0.50;;
68010;SDS011;54794;48.348;7.878;2023-04-03T14:09:31;0.70;;;0.52;;
68010;SDS011;54794;48.348;7.878;2023-04-03T14:12:07;1.30;;;0.57;;
68010;SDS011;54794;48.348;7.878;2023-04-03T14:14:58;0.40;;;0.40;;
68010;SDS011;54794;48.348;7.878;2023-04-03T14:17:39;2.08;;;0.50;;
68010;SDS011;54794;48.348;7.878;2023-04-03T14:20:16;0.75;;;0.45;;
68010;SDS011;54794;48.348;7.878;2023-04-03T14:22:55;1.52;;;0.50;;
68010;SDS011;54794;48.348;7.878;2023-04-03T14:25:23;1.73;;;0.52;;
68010;SDS011;54794;48.348;7.878;2023-04-03T14:27:58;3.00;;;0.60;;
68010;SDS011;54794;48.348;7.878;2023-04-03T14:30:38;0.60;;;0.40;;
68010;SDS011;54794;48.348;7.878;2023-04-03T14:33:16;3.15;;;0.60;;
68010;SDS011;54794;48.348;7.878;2023-04-03T14:35:49;1.27;;;0.77;;
68010;SDS011;54794;48.348;7.878;2023-04-03T14:38:27;1.60;;;0.90;;
68010;SDS011;54794;48.348;7.878;2023-04-03T14:41:07;1.08;;;0.60;;
68010;SDS011;54794;48.348;7.878;2023-04-03T14:46:39;1.35;;;0.52;;
68010;SDS011;54794;48.348;7.878;2023-04-03T14:49:29;0.70;;;0.52;;
68010;SDS011;54794;48.348;7.878;2023-04-03T14:52:02;1.38;;;0.90;;
68010;SDS011;54794;48.348;7.878;2023-04-03T14:54:30;0.93;;;0.60;;
68010;SDS011;54794;48.348;7.878;2023-04-03T14:56:58;1.23;;;0.55;;
68010;SDS011;54794;48.348;7.878;2023-04-03T14:59:41;0.70;;;0.40;;
68010;SDS011;54794;48.348;7.878;2023-04-03T15:05:05;0.75;;;0.40;;
68010;SDS011;54794;48.348;7.878;2023-04-03T15:12:02;0.77;;;0.55;;
68010;SDS011;54794;48.348;7.878;2023-04-03T15:17:38;1.00;;;0.60;;
68010;SDS011;54794;48.348;7.878;2023-04-03T15:20:16;0.60;;;0.38;;
68010;SDS011;54794;48.348;7.878;2023-04-03T15:22:46;0.70;;;0.45;;
68010;SDS011;54794;48.348;7.878;2023-04-03T15:25:13;0.88;;;0.50;;
68010;SDS011;54794;48.348;7.878;2023-04-03T15:27:41;1.13;;;0.50;;
68010;SDS011;54794;48.348;7.878;2023-04-03T15:32:55;0.88;;;0.47;;
68010;SDS011;54794;48.348;7.878;2023-04-03T15:35:22;0.82;;;0.45;;
68010;SDS011;54794;48.348;7.878;2023-04-03T15:37:49;0.75;;;0.40;;
68010;SDS011;54794;48.348;7.878;2023-04-03T15:42:44;0.93;;;0.65;;
68010;SDS011;54794;48.348;7.878;2023-04-03T15:45:42;0.50;;;0.30;;
68010;SDS011;54794;48.348;7.878;2023-04-03T15:48:11;1.02;;;0.30;;
68010;SDS011;54794;48.348;7.878;2023-04-03T15:50:38;0.63;;;0.40;;
68010;SDS011;54794;48.348;7.878;2023-04-03T16:03:16;0.68;;;0.30;;
68010;SDS011;54794;48.348;7.878;2023-04-03T16:06:44;1.05;;;0.35;;
68010;SDS011;54794;48.348;7.878;2023-04-03T16:09:11;1.92;;;0.40;;
68010;SDS011;54794;48.348;7.878;2023-04-03T16:11:46;0.82;;;0.40;;
68010;SDS011;54794;48.348;7.878;2023-04-03T16:14:17;1.33;;;0.47;;
68010;SDS011;54794;48.348;7.878;2023-04-03T16:16:44;1.73;;;0.68;;
68010;SDS011;54794;48.348;7.878;2023-04-03T16:19:14;0.88;;;0.52;;
68010;SDS011;54794;48.348;7.878;2023-04-03T16:21:41;1.13;;;0.60;;
68010;SDS011;54794;48.348;7.878;2023-04-03T16:24:13;0.95;;;0.45;;
68010;SDS011;54794;48.348;7.878;2023-04-03T16:26:43;1.00;;;0.40;;
68010;SDS011;54794;48.348;7.878;2023-04-03T16:29:10;0.70;;;0.40;;
68010;SDS011;54794;48.348;7.878;2023-04-03T16:31:37;1.15;;;0.52;;
68010;SDS011;54794;48.348;7.878;2023-04-03T16:34:04;0.82;;;0.45;;
68010;SDS011;54794;48.348;7.878;2023-04-03T16:36:31;1.02;;;0.50;;
68010;SDS011;54794;48.348;7.878;2023-04-03T16:39:18;1.05;;;0.43;;
68010;SDS011;54794;48.348;7.878;2023-04-03T16:41:45;0.67;;;0.43;;
68010;SDS011;54794;48.348;7.878;2023-04-03T16:44:12;1.70;;;0.50;;
68010;SDS011;54794;48.348;7.878;2023-04-03T16:46:40;0.63;;;0.38;;
68010;SDS011;54794;48.348;7.878;2023-04-03T16:49:14;1.73;;;0.50;;
68010;SDS011;54794;48.348;7.878;2023-04-03T16:51:42;1.40;;;0.52;;
68010;SDS011;54794;48.348;7.878;2023-04-03T16:54:22;1.25;;;0.60;;
68010;SDS011;54794;48.348;7.878;2023-04-03T16:56:51;1.13;;;0.40;;
68010;SDS011;54794;48.348;7.878;2023-04-03T16:59:18;1.30;;;0.52;;
68010;SDS011;54794;48.348;7.878;2023-04-03T17:05:53;0.65;;;0.38;;
68010;SDS011;54794;48.348;7.878;2023-04-03T17:08:33;1.00;;;0.50;;
68010;SDS011;54794;48.348;7.878;2023-04-03T17:11:00;1.30;;;0.60;;
68010;SDS011;54794;48.348;7.878;2023-04-03T17:13:28;0.90;;;0.40;;
68010;SDS011;54794;48.348;7.878;2023-04-03T17:15:58;1.58;;;0.52;;
68010;SDS011;54794;48.348;7.878;2023-04-03T17:18:28;0.82;;;0.50;;
68010;SDS011;54794;48.348;7.878;2023-04-03T17:21:07;0.90;;;0.40;;
68010;SDS011;54794;48.348;7.878;2023-04-03T17:23:34;0.60;;;0.30;;
68010;SDS011;54794;48.348;7.878;2023-04-03T17:26:04;0.50;;;0.40;;
68010;SDS011;54794;48.348;7.878;2023-04-03T17:28:49;1.48;;;0.55;;
68010;SDS011;54794;48.348;7.878;2023-04-03T17:31:16;0.43;;;0.38;;
68010;SDS011;54794;48.348;7.878;2023-04-03T17:33:43;0.63;;;0.32;;
68010;SDS011;54794;48.348;7.878;2023-04-03T17:36:10;0.98;;;0.40;;
68010;SDS011;54794;48.348;7.878;2023-04-03T17:38:38;1.10;;;0.52;;
68010;SDS011;54794;48.348;7.878;2023-04-03T17:41:05;1.10;;;0.38;;
68010;SDS011;54794;48.348;7.878;2023-04-03T17:43:34;2.67;;;0.60;;
68010;SDS011;54794;48.348;7.878;2023-04-03T17:46:03;1.02;;;0.57;;
68010;SDS011;54794;48.348;7.878;2023-04-03T17:48:35;1.83;;;0.60;;
68010;SDS011;54794;48.348;7.878;2023-04-03T17:51:15;1.52;;;0.70;;
68010;SDS011;54794;48.348;7.878;2023-04-03T17:53:46;2.10;;;0.70;;
68010;SDS011;54794;48.348;7.878;2023-04-03T17:56:16;2.50;;;0.65;;
68010;SDS011;54794;48.348;7.878;2023-04-03T17:58:49;1.17;;;0.50;;
68010;SDS011;54794;48.348;7.878;2023-04-03T18:01:20;3.47;;;2.17;;
68010;SDS011;54794;48.348;7.878;2023-04-03T18:03:54;1.58;;;0.90;;
68010;SDS011;54794;48.348;7.878;2023-04-03T18:06:50;1.90;;;0.88;;
68010;SDS011;54794;48.348;7.878;2023-04-03T18:12:33;1.23;;;0.60;;
68010;SDS011;54794;48.348;7.878;2023-04-03T18:15:29;1.10;;;0.45;;
68010;SDS011;54794;48.348;7.878;2023-04-03T18:17:56;0.77;;;0.40;;
68010;SDS011;54794;48.348;7.878;2023-04-03T18:20:23;1.58;;;0.93;;
68010;SDS011;54794;48.348;7.878;2023-04-03T18:22:50;3.05;;;1.23;;
68010;SDS011;54794;48.348;7.878;2023-04-03T18:25:17;1.35;;;0.70;;
68010;SDS011;54794;48.348;7.878;2023-04-03T18:27:45;1.98;;;0.80;;
68010;SDS011;54794;48.348;7.878;2023-04-03T18:30:14;1.77;;;0.93;;
68010;SDS011;54794;48.348;7.878;2023-04-03T18:32:43;2.00;;;0.85;;
68010;SDS011;54794;48.348;7.878;2023-04-03T18:35:10;1.63;;;0.80;;
68010;SDS011;54794;48.348;7.878;2023-04-03T18:37:37;2.70;;;0.70;;
68010;SDS011;54794;48.348;7.878;2023-04-03T18:40:04;2.00;;;0.60;;
68010;SDS011;54794;48.348;7.878;2023-04-03T18:42:32;1.33;;;0.50;;
68010;SDS011;54794;48.348;7.878;2023-04-03T18:45:00;1.98;;;0.77;;
68010;SDS011;54794;48.348;7.878;2023-04-03T18:47:30;0.95;;;0.60;;
68010;SDS011;54794;48.348;7.878;2023-04-03T18:52:25;2.05;;;0.50;;
68010;SDS011;54794;48.348;7.878;2023-04-03T18:54:55;1.17;;;0.60;;
68010;SDS011;54794;48.348;7.878;2023-04-03T18:57:31;2.90;;;0.65;;
68010;SDS011;54794;48.348;7.878;2023-04-03T19:00:05;1.25;;;0.68;;
68010;SDS011;54794;48.348;7.878;2023-04-03T19:02:35;0.85;;;0.63;;
68010;SDS011;54794;48.348;7.878;2023-04-03T19:05:10;1.02;;;0.60;;
68010;SDS011;54794;48.348;7.878;2023-04-03T19:07:42;1.08;;;0.60;;
68010;SDS011;54794;48.348;7.878;2023-04-03T19:10:13;0.80;;;0.65;;
68010;SDS011;54794;48.348;7.878;2023-04-03T19:12:45;1.35;;;0.60;;
68010;SDS011;54794;48.348;7.878;2023-04-03T19:15:22;0.75;;;0.55;;
68010;SDS011;54794;48.348;7.878;2023-04-03T19:17:51;2.15;;;0.80;;
68010;SDS011;54794;48.348;7.878;2023-04-03T19:20:18;0.90;;;0.68;;
68010;SDS011;54794;48.348;7.878;2023-04-03T19:22:46;1.20;;;0.70;;